sensor_id;sensor_type;location;lat;lon;timestamp;temperature;humidity
1700;DHT22;847;48.058;7.810;2022-12-18T00:02:12;-4.80;99.00
1700;DHT22;847;48.058;7.810;2022-12-18T00:04:39;-4.80;99.00
1700;DHT22;847;48.058;7.810;2022-12-18T00:07:06;-4.80;99.00
1700;DHT22;847;48.058;7.810;2022-12-18T00:09:34;-4.90;99.00
1700;DHT22;847;48.058;7.810;2022-12-18T00:12:01;-4.90;99.00
1700;DHT22;847;48.058;7.810;2022-12-18T00:14:28;-4.90;99.00
1700;DHT22;847;48.058;7.810;2022-12-18T00:16:54;-4.90;99.00
1700;DHT22;847;48.058;7.810;2022-12-18T00:19:22;-4.90;99.00
1700;DHT22;847;48.058;7.810;2022-12-18T00:21:49;-5.00;99.00
1700;DHT22;847;48.058;7.810;2022-12-18T00:24:15;-5.00;99.00
1700;DHT22;847;48.058;7.810;2022-12-18T00:26:43;-5.00;99.00
1700;DHT22;847;48.058;7.810;2022-12-18T00:29:13;-4.90;99.00
1700;DHT22;847;48.058;7.810;2022-12-18T00:31:40;-4.90;99.00
1700;DHT22;847;48.058;7.810;2022-12-18T00:34:10;-4.90;99.00
1700;DHT22;847;48.058;7.810;2022-12-18T00:36:39;-4.90;99.00
1700;DHT22;847;48.058;7.810;2022-12-18T00:39:06;-4.80;99.00
1700;DHT22;847;48.058;7.810;2022-12-18T00:41:33;-4.80;99.00
1700;DHT22;847;48.058;7.810;2022-12-18T00:44:19;-4.90;99.00
1700;DHT22;847;48.058;7.810;2022-12-18T00:46:46;-4.90;99.00
1700;DHT22;847;48.058;7.810;2022-12-18T00:49:14;-4.90;99.00
1700;DHT22;847;48.058;7.810;2022-12-18T00:51:41;-5.00;99.00
1700;DHT22;847;48.058;7.810;2022-12-18T00:54:08;-4.90;99.00
1700;DHT22;847;48.058;7.810;2022-12-18T00:56:36;-4.90;99.00
1700;DHT22;847;48.058;7.810;2022-12-18T00:59:03;-5.00;99.00
1700;DHT22;847;48.058;7.810;2022-12-18T01:01:32;-4.90;99.00
1700;DHT22;847;48.058;7.810;2022-12-18T01:04:00;-4.90;99.00
1700;DHT22;847;48.058;7.810;2022-12-18T01:06:27;-4.90;99.00
1700;DHT22;847;48.058;7.810;2022-12-18T01:08:54;-5.00;99.00
1700;DHT22;847;48.058;7.810;2022-12-18T01:11:22;-5.00;99.00
1700;DHT22;847;48.058;7.810;2022-12-18T01:13:48;-4.90;99.00
1700;DHT22;847;48.058;7.810;2022-12-18T01:16:16;-5.00;99.00
1700;DHT22;847;48.058;7.810;2022-12-18T01:18:45;-5.00;99.00
1700;DHT22;847;48.058;7.810;2022-12-18T01:21:14;-5.00;99.00
1700;DHT22;847;48.058;7.810;2022-12-18T01:23:41;-5.00;99.00
1700;DHT22;847;48.058;7.810;2022-12-18T01:26:10;-5.10;99.00
1700;DHT22;847;48.058;7.810;2022-12-18T01:28:37;-5.10;99.00
1700;DHT22;847;48.058;7.810;2022-12-18T01:31:12;-5.10;99.00
1700;DHT22;847;48.058;7.810;2022-12-18T01:33:39;-5.00;99.00
1700;DHT22;847;48.058;7.810;2022-12-18T01:36:08;-5.00;99.00
1700;DHT22;847;48.058;7.810;2022-12-18T01:38:34;-4.90;99.00
1700;DHT22;847;48.058;7.810;2022-12-18T01:41:02;-5.00;99.00
1700;DHT22;847;48.058;7.810;2022-12-18T01:43:47;-5.10;99.00
1700;DHT22;847;48.058;7.810;2022-12-18T01:46:15;-5.20;99.00
1700;DHT22;847;48.058;7.810;2022-12-18T01:48:42;-5.20;99.00
1700;DHT22;847;48.058;7.810;2022-12-18T01:51:12;-5.30;99.00
1700;DHT22;847;48.058;7.810;2022-12-18T01:53:41;-5.10;99.00
1700;DHT22;847;48.058;7.810;2022-12-18T01:56:12;-5.10;99.00
1700;DHT22;847;48.058;7.810;2022-12-18T01:58:46;-5.20;99.00
1700;DHT22;847;48.058;7.810;2022-12-18T02:01:14;-5.30;99.00
1700;DHT22;847;48.058;7.810;2022-12-18T02:03:42;-5.10;99.00
1700;DHT22;847;48.058;7.810;2022-12-18T02:06:16;-5.00;99.00
1700;DHT22;847;48.058;7.810;2022-12-18T02:08:50;-5.20;99.00
1700;DHT22;847;48.058;7.810;2022-12-18T02:11:26;-5.20;99.00
1700;DHT22;847;48.058;7.810;2022-12-18T02:14:02;-5.30;99.00
1700;DHT22;847;48.058;7.810;2022-12-18T02:16:39;-5.20;99.00
1700;DHT22;847;48.058;7.810;2022-12-18T02:19:19;-5.20;99.00
1700;DHT22;847;48.058;7.810;2022-12-18T02:21:54;-5.20;99.00
1700;DHT22;847;48.058;7.810;2022-12-18T02:24:31;-5.30;99.00
1700;DHT22;847;48.058;7.810;2022-12-18T02:27:04;-5.40;99.00
1700;DHT22;847;48.058;7.810;2022-12-18T02:29:36;-5.30;99.00
1700;DHT22;847;48.058;7.810;2022-12-18T02:32:08;-5.30;99.00
1700;DHT22;847;48.058;7.810;2022-12-18T02:34:39;-5.30;99.00
1700;DHT22;847;48.058;7.810;2022-12-18T02:37:09;-5.30;99.00
1700;DHT22;847;48.058;7.810;2022-12-18T02:39:39;-5.30;99.00
1700;DHT22;847;48.058;7.810;2022-12-18T02:42:08;-5.20;99.00
1700;DHT22;847;48.058;7.810;2022-12-18T02:44:41;-5.00;99.00
1700;DHT22;847;48.058;7.810;2022-12-18T02:47:10;-5.00;99.00
1700;DHT22;847;48.058;7.810;2022-12-18T02:49:44;-4.90;99.00
1700;DHT22;847;48.058;7.810;2022-12-18T02:52:24;-5.00;99.00
1700;DHT22;847;48.058;7.810;2022-12-18T02:55:00;-5.00;99.00
1700;DHT22;847;48.058;7.810;2022-12-18T02:57:39;-5.00;99.00
1700;DHT22;847;48.058;7.810;2022-12-18T03:00:10;-5.10;99.00
1700;DHT22;847;48.058;7.810;2022-12-18T03:02:43;-5.20;99.00
1700;DHT22;847;48.058;7.810;2022-12-18T03:05:13;-5.20;99.00
1700;DHT22;847;48.058;7.810;2022-12-18T03:07:44;-5.30;99.00
1700;DHT22;847;48.058;7.810;2022-12-18T03:10:16;-5.20;99.00
1700;DHT22;847;48.058;7.810;2022-12-18T03:12:49;-5.20;99.00
1700;DHT22;847;48.058;7.810;2022-12-18T03:15:20;-5.00;99.00
1700;DHT22;847;48.058;7.810;2022-12-18T03:17:52;-5.00;99.00
1700;DHT22;847;48.058;7.810;2022-12-18T03:20:21;-5.00;99.00
1700;DHT22;847;48.058;7.810;2022-12-18T03:22:53;-5.10;99.00
1700;DHT22;847;48.058;7.810;2022-12-18T03:25:21;-5.10;99.00
1700;DHT22;847;48.058;7.810;2022-12-18T03:27:56;-5.00;99.00
1700;DHT22;847;48.058;7.810;2022-12-18T03:30:23;-5.00;99.00
1700;DHT22;847;48.058;7.810;2022-12-18T03:32:54;-5.10;99.00
1700;DHT22;847;48.058;7.810;2022-12-18T03:35:29;-5.00;99.00
1700;DHT22;847;48.058;7.810;2022-12-18T03:37:57;-5.00;99.00
1700;DHT22;847;48.058;7.810;2022-12-18T03:40:29;-5.00;99.00
1700;DHT22;847;48.058;7.810;2022-12-18T03:43:02;-5.00;99.00
1700;DHT22;847;48.058;7.810;2022-12-18T03:45:34;-5.10;99.00
1700;DHT22;847;48.058;7.810;2022-12-18T03:48:04;-5.20;99.00
1700;DHT22;847;48.058;7.810;2022-12-18T03:50:41;-5.20;99.00
1700;DHT22;847;48.058;7.810;2022-12-18T03:53:19;-5.10;99.00
1700;DHT22;847;48.058;7.810;2022-12-18T03:55:48;-5.10;99.00
1700;DHT22;847;48.058;7.810;2022-12-18T03:58:20;-5.00;99.00
1700;DHT22;847;48.058;7.810;2022-12-18T04:00:48;-5.10;99.00
1700;DHT22;847;48.058;7.810;2022-12-18T04:03:18;-5.00;99.00
1700;DHT22;847;48.058;7.810;2022-12-18T04:05:47;-5.00;99.00
1700;DHT22;847;48.058;7.810;2022-12-18T04:08:16;-5.00;99.00
1700;DHT22;847;48.058;7.810;2022-12-18T04:10:43;-5.20;99.00
1700;DHT22;847;48.058;7.810;2022-12-18T04:13:09;-5.30;99.00
1700;DHT22;847;48.058;7.810;2022-12-18T04:15:38;-5.30;99.00
1700;DHT22;847;48.058;7.810;2022-12-18T04:18:06;-5.40;99.00
1700;DHT22;847;48.058;7.810;2022-12-18T04:20:32;-5.50;99.00
1700;DHT22;847;48.058;7.810;2022-12-18T04:22:59;-5.40;99.00
1700;DHT22;847;48.058;7.810;2022-12-18T04:25:26;-5.40;99.00
1700;DHT22;847;48.058;7.810;2022-12-18T04:27:53;-5.40;99.00
1700;DHT22;847;48.058;7.810;2022-12-18T04:30:19;-5.30;99.00
1700;DHT22;847;48.058;7.810;2022-12-18T04:32:48;-5.20;99.00
1700;DHT22;847;48.058;7.810;2022-12-18T04:35:14;-5.20;99.00
1700;DHT22;847;48.058;7.810;2022-12-18T04:37:41;-5.20;99.00
1700;DHT22;847;48.058;7.810;2022-12-18T04:40:09;-5.20;99.00
1700;DHT22;847;48.058;7.810;2022-12-18T04:42:36;-5.30;99.00
1700;DHT22;847;48.058;7.810;2022-12-18T04:45:03;-5.20;99.00
1700;DHT22;847;48.058;7.810;2022-12-18T04:47:30;-5.30;99.00
1700;DHT22;847;48.058;7.810;2022-12-18T04:49:58;-5.30;99.00
1700;DHT22;847;48.058;7.810;2022-12-18T04:52:25;-5.30;99.00
1700;DHT22;847;48.058;7.810;2022-12-18T04:54:52;-5.30;99.00
1700;DHT22;847;48.058;7.810;2022-12-18T04:57:19;-5.30;99.00
1700;DHT22;847;48.058;7.810;2022-12-18T04:59:46;-5.40;99.00
1700;DHT22;847;48.058;7.810;2022-12-18T05:02:12;-5.50;99.00
1700;DHT22;847;48.058;7.810;2022-12-18T05:04:39;-5.50;99.00
1700;DHT22;847;48.058;7.810;2022-12-18T05:07:07;-5.40;99.00
1700;DHT22;847;48.058;7.810;2022-12-18T05:09:34;-5.40;99.00
1700;DHT22;847;48.058;7.810;2022-12-18T05:12:01;-5.40;99.00
1700;DHT22;847;48.058;7.810;2022-12-18T05:14:27;-5.40;99.00
1700;DHT22;847;48.058;7.810;2022-12-18T05:16:54;-5.50;99.00
1700;DHT22;847;48.058;7.810;2022-12-18T05:19:21;-5.50;99.00
1700;DHT22;847;48.058;7.810;2022-12-18T05:21:48;-5.50;99.00
1700;DHT22;847;48.058;7.810;2022-12-18T05:24:16;-5.40;99.00
1700;DHT22;847;48.058;7.810;2022-12-18T05:26:43;-5.40;99.00
1700;DHT22;847;48.058;7.810;2022-12-18T05:29:09;-5.50;99.00
1700;DHT22;847;48.058;7.810;2022-12-18T05:31:37;-5.40;99.00
1700;DHT22;847;48.058;7.810;2022-12-18T05:34:04;-5.40;99.00
1700;DHT22;847;48.058;7.810;2022-12-18T05:36:31;-5.40;99.00
1700;DHT22;847;48.058;7.810;2022-12-18T05:38:58;-5.50;99.00
1700;DHT22;847;48.058;7.810;2022-12-18T05:41:27;-5.50;99.00
1700;DHT22;847;48.058;7.810;2022-12-18T05:43:54;-5.50;99.00
1700;DHT22;847;48.058;7.810;2022-12-18T05:46:21;-5.50;99.00
1700;DHT22;847;48.058;7.810;2022-12-18T05:48:48;-5.60;99.00
1700;DHT22;847;48.058;7.810;2022-12-18T05:51:18;-5.70;99.00
1700;DHT22;847;48.058;7.810;2022-12-18T05:53:45;-5.70;99.00
1700;DHT22;847;48.058;7.810;2022-12-18T05:56:14;-5.70;99.00
1700;DHT22;847;48.058;7.810;2022-12-18T05:58:43;-5.70;99.00
1700;DHT22;847;48.058;7.810;2022-12-18T06:01:12;-5.70;99.00
1700;DHT22;847;48.058;7.810;2022-12-18T06:03:39;-5.60;99.00
1700;DHT22;847;48.058;7.810;2022-12-18T06:06:13;-5.70;99.00
1700;DHT22;847;48.058;7.810;2022-12-18T06:08:40;-5.90;99.00
1700;DHT22;847;48.058;7.810;2022-12-18T06:11:07;-6.10;99.00
1700;DHT22;847;48.058;7.810;2022-12-18T06:13:33;-6.20;99.00
1700;DHT22;847;48.058;7.810;2022-12-18T06:16:05;-6.40;99.00
1700;DHT22;847;48.058;7.810;2022-12-18T06:18:32;-6.40;99.00
1700;DHT22;847;48.058;7.810;2022-12-18T06:21:02;-6.50;99.00
1700;DHT22;847;48.058;7.810;2022-12-18T06:23:29;-6.50;99.00
1700;DHT22;847;48.058;7.810;2022-12-18T06:25:56;-6.50;99.00
1700;DHT22;847;48.058;7.810;2022-12-18T06:28:23;-6.50;99.00
1700;DHT22;847;48.058;7.810;2022-12-18T06:30:50;-6.40;99.00
1700;DHT22;847;48.058;7.810;2022-12-18T06:33:18;-6.40;99.00
1700;DHT22;847;48.058;7.810;2022-12-18T06:35:44;-6.40;99.00
1700;DHT22;847;48.058;7.810;2022-12-18T06:38:11;-6.40;99.00
1700;DHT22;847;48.058;7.810;2022-12-18T06:40:38;-6.40;99.00
1700;DHT22;847;48.058;7.810;2022-12-18T06:43:05;-6.50;99.00
1700;DHT22;847;48.058;7.810;2022-12-18T06:45:33;-6.40;99.00
1700;DHT22;847;48.058;7.810;2022-12-18T06:48:00;-6.40;99.00
1700;DHT22;847;48.058;7.810;2022-12-18T06:50:28;-6.40;99.00
1700;DHT22;847;48.058;7.810;2022-12-18T06:52:55;-6.30;99.00
1700;DHT22;847;48.058;7.810;2022-12-18T06:55:21;-6.40;99.00
1700;DHT22;847;48.058;7.810;2022-12-18T06:57:48;-6.60;99.00
1700;DHT22;847;48.058;7.810;2022-12-18T07:00:15;-6.70;99.00
1700;DHT22;847;48.058;7.810;2022-12-18T07:02:42;-6.70;99.00
1700;DHT22;847;48.058;7.810;2022-12-18T07:05:09;-6.80;99.00
1700;DHT22;847;48.058;7.810;2022-12-18T07:07:37;-6.70;99.00
1700;DHT22;847;48.058;7.810;2022-12-18T07:10:04;-6.80;99.00
1700;DHT22;847;48.058;7.810;2022-12-18T07:12:31;-6.80;99.00
1700;DHT22;847;48.058;7.810;2022-12-18T07:14:58;-6.70;99.00
1700;DHT22;847;48.058;7.810;2022-12-18T07:17:25;-6.60;99.00
1700;DHT22;847;48.058;7.810;2022-12-18T07:19:51;-6.60;99.00
1700;DHT22;847;48.058;7.810;2022-12-18T07:22:18;-6.50;99.00
1700;DHT22;847;48.058;7.810;2022-12-18T07:24:46;-6.50;99.00
1700;DHT22;847;48.058;7.810;2022-12-18T07:27:13;-6.40;99.00
1700;DHT22;847;48.058;7.810;2022-12-18T07:29:40;-6.30;99.00
1700;DHT22;847;48.058;7.810;2022-12-18T07:32:07;-6.30;99.00
1700;DHT22;847;48.058;7.810;2022-12-18T07:34:34;-6.30;99.00
1700;DHT22;847;48.058;7.810;2022-12-18T07:37:01;-6.30;99.00
1700;DHT22;847;48.058;7.810;2022-12-18T07:39:28;-6.30;99.00
1700;DHT22;847;48.058;7.810;2022-12-18T07:41:56;-6.30;99.00
1700;DHT22;847;48.058;7.810;2022-12-18T07:44:40;-6.30;99.00
1700;DHT22;847;48.058;7.810;2022-12-18T07:47:07;-6.40;99.00
1700;DHT22;847;48.058;7.810;2022-12-18T07:49:34;-6.40;99.00
1700;DHT22;847;48.058;7.810;2022-12-18T07:52:00;-6.50;99.00
1700;DHT22;847;48.058;7.810;2022-12-18T07:54:28;-6.40;99.00
1700;DHT22;847;48.058;7.810;2022-12-18T07:56:56;-6.40;99.00
1700;DHT22;847;48.058;7.810;2022-12-18T07:59:23;-6.40;99.00
1700;DHT22;847;48.058;7.810;2022-12-18T08:01:49;-6.40;99.00
1700;DHT22;847;48.058;7.810;2022-12-18T08:04:16;-6.40;99.00
1700;DHT22;847;48.058;7.810;2022-12-18T08:06:43;-6.40;99.00
1700;DHT22;847;48.058;7.810;2022-12-18T08:09:10;-6.50;99.00
1700;DHT22;847;48.058;7.810;2022-12-18T08:11:37;-6.50;99.00
1700;DHT22;847;48.058;7.810;2022-12-18T08:14:05;-6.50;99.00
1700;DHT22;847;48.058;7.810;2022-12-18T08:16:32;-6.50;99.00
1700;DHT22;847;48.058;7.810;2022-12-18T08:18:58;-6.40;99.00
1700;DHT22;847;48.058;7.810;2022-12-18T08:21:27;-6.30;99.00
1700;DHT22;847;48.058;7.810;2022-12-18T08:23:55;-6.40;99.00
1700;DHT22;847;48.058;7.810;2022-12-18T08:26:23;-6.50;99.00
1700;DHT22;847;48.058;7.810;2022-12-18T08:28:51;-6.50;99.00
1700;DHT22;847;48.058;7.810;2022-12-18T08:31:19;-6.50;99.00
1700;DHT22;847;48.058;7.810;2022-12-18T08:33:48;-6.50;99.00
1700;DHT22;847;48.058;7.810;2022-12-18T08:36:16;-6.40;99.00
1700;DHT22;847;48.058;7.810;2022-12-18T08:38:42;-6.40;99.00
1700;DHT22;847;48.058;7.810;2022-12-18T08:41:10;-6.40;99.00
1700;DHT22;847;48.058;7.810;2022-12-18T08:43:38;-6.50;99.00
1700;DHT22;847;48.058;7.810;2022-12-18T08:46:25;-6.50;99.00
1700;DHT22;847;48.058;7.810;2022-12-18T08:48:53;-6.40;99.00
1700;DHT22;847;48.058;7.810;2022-12-18T08:51:20;-6.30;99.00
1700;DHT22;847;48.058;7.810;2022-12-18T08:53:47;-6.20;99.00
1700;DHT22;847;48.058;7.810;2022-12-18T08:56:14;-6.30;99.00
1700;DHT22;847;48.058;7.810;2022-12-18T08:58:42;-6.70;99.00
1700;DHT22;847;48.058;7.810;2022-12-18T09:01:10;-6.70;99.00
1700;DHT22;847;48.058;7.810;2022-12-18T09:03:39;-6.80;99.00
1700;DHT22;847;48.058;7.810;2022-12-18T09:06:06;-6.90;99.00
1700;DHT22;847;48.058;7.810;2022-12-18T09:08:33;-6.80;99.00
1700;DHT22;847;48.058;7.810;2022-12-18T09:11:00;-6.80;99.00
1700;DHT22;847;48.058;7.810;2022-12-18T09:13:27;-6.70;99.00
1700;DHT22;847;48.058;7.810;2022-12-18T09:15:55;-6.70;99.00
1700;DHT22;847;48.058;7.810;2022-12-18T09:18:23;-6.70;99.00
1700;DHT22;847;48.058;7.810;2022-12-18T09:20:51;-6.80;99.00
1700;DHT22;847;48.058;7.810;2022-12-18T09:23:18;-6.60;99.00
1700;DHT22;847;48.058;7.810;2022-12-18T09:25:45;-6.60;99.00
1700;DHT22;847;48.058;7.810;2022-12-18T09:28:13;-6.40;99.00
1700;DHT22;847;48.058;7.810;2022-12-18T09:30:40;-6.20;99.00
1700;DHT22;847;48.058;7.810;2022-12-18T09:33:08;-6.30;99.00
1700;DHT22;847;48.058;7.810;2022-12-18T09:35:36;-6.40;99.00
1700;DHT22;847;48.058;7.810;2022-12-18T09:38:04;-6.30;99.00
1700;DHT22;847;48.058;7.810;2022-12-18T09:40:34;-6.20;99.00
1700;DHT22;847;48.058;7.810;2022-12-18T09:43:04;-6.20;99.00
1700;DHT22;847;48.058;7.810;2022-12-18T09:45:39;-6.30;99.00
1700;DHT22;847;48.058;7.810;2022-12-18T09:48:11;-6.20;99.00
1700;DHT22;847;48.058;7.810;2022-12-18T09:50:40;-6.40;99.00
1700;DHT22;847;48.058;7.810;2022-12-18T09:53:15;-6.50;99.00
1700;DHT22;847;48.058;7.810;2022-12-18T09:55:45;-6.30;99.00
1700;DHT22;847;48.058;7.810;2022-12-18T09:58:16;-6.30;99.00
1700;DHT22;847;48.058;7.810;2022-12-18T10:00:45;-6.20;99.00
1700;DHT22;847;48.058;7.810;2022-12-18T10:03:14;-6.10;99.00
1700;DHT22;847;48.058;7.810;2022-12-18T10:05:45;-6.10;99.00
1700;DHT22;847;48.058;7.810;2022-12-18T10:08:21;-6.10;99.00
1700;DHT22;847;48.058;7.810;2022-12-18T10:10:51;-6.00;99.00
1700;DHT22;847;48.058;7.810;2022-12-18T10:13:24;-5.90;99.00
1700;DHT22;847;48.058;7.810;2022-12-18T10:16:08;-5.90;99.00
1700;DHT22;847;48.058;7.810;2022-12-18T10:18:57;-5.80;99.00
1700;DHT22;847;48.058;7.810;2022-12-18T10:21:31;-5.60;99.00
1700;DHT22;847;48.058;7.810;2022-12-18T10:24:08;-5.50;99.00
1700;DHT22;847;48.058;7.810;2022-12-18T10:26:36;-5.50;99.00
1700;DHT22;847;48.058;7.810;2022-12-18T10:29:06;-5.40;99.00
1700;DHT22;847;48.058;7.810;2022-12-18T10:31:36;-5.50;99.00
1700;DHT22;847;48.058;7.810;2022-12-18T10:34:03;-5.50;99.00
1700;DHT22;847;48.058;7.810;2022-12-18T10:36:31;-5.60;99.00
1700;DHT22;847;48.058;7.810;2022-12-18T10:39:14;-5.60;99.00
1700;DHT22;847;48.058;7.810;2022-12-18T10:41:41;-5.60;99.00
1700;DHT22;847;48.058;7.810;2022-12-18T10:44:18;-5.70;99.00
1700;DHT22;847;48.058;7.810;2022-12-18T10:46:46;-5.80;99.00
1700;DHT22;847;48.058;7.810;2022-12-18T10:49:23;-5.70;99.00
1700;DHT22;847;48.058;7.810;2022-12-18T10:52:04;-5.50;99.00
1700;DHT22;847;48.058;7.810;2022-12-18T10:54:33;-5.40;99.00
1700;DHT22;847;48.058;7.810;2022-12-18T10:57:15;-5.30;99.00
1700;DHT22;847;48.058;7.810;2022-12-18T10:59:51;-5.20;99.00
1700;DHT22;847;48.058;7.810;2022-12-18T11:02:27;-5.20;99.00
1700;DHT22;847;48.058;7.810;2022-12-18T11:04:54;-5.30;99.00
1700;DHT22;847;48.058;7.810;2022-12-18T11:07:21;-5.30;99.00
1700;DHT22;847;48.058;7.810;2022-12-18T11:10:03;-5.20;99.00
1700;DHT22;847;48.058;7.810;2022-12-18T11:12:30;-5.10;99.00
1700;DHT22;847;48.058;7.810;2022-12-18T11:14:58;-5.10;99.00
1700;DHT22;847;48.058;7.810;2022-12-18T11:17:29;-5.20;99.00
1700;DHT22;847;48.058;7.810;2022-12-18T11:19:57;-5.10;99.00
1700;DHT22;847;48.058;7.810;2022-12-18T11:22:26;-5.00;99.00
1700;DHT22;847;48.058;7.810;2022-12-18T11:24:57;-5.00;99.00
1700;DHT22;847;48.058;7.810;2022-12-18T11:27:26;-5.00;99.00
1700;DHT22;847;48.058;7.810;2022-12-18T11:29:53;-4.90;99.00
1700;DHT22;847;48.058;7.810;2022-12-18T11:32:35;-4.90;99.00
1700;DHT22;847;48.058;7.810;2022-12-18T11:35:10;-4.90;99.00
1700;DHT22;847;48.058;7.810;2022-12-18T11:37:40;-4.80;99.00
1700;DHT22;847;48.058;7.810;2022-12-18T11:40:14;-4.70;99.00
1700;DHT22;847;48.058;7.810;2022-12-18T11:42:47;-4.70;99.00
1700;DHT22;847;48.058;7.810;2022-12-18T11:45:24;-4.70;99.00
1700;DHT22;847;48.058;7.810;2022-12-18T11:47:56;-4.60;99.00
1700;DHT22;847;48.058;7.810;2022-12-18T11:50:26;-4.60;99.00
1700;DHT22;847;48.058;7.810;2022-12-18T11:52:55;-4.60;99.00
1700;DHT22;847;48.058;7.810;2022-12-18T11:55:30;-4.50;99.00
1700;DHT22;847;48.058;7.810;2022-12-18T11:58:01;-4.40;99.00
1700;DHT22;847;48.058;7.810;2022-12-18T12:00:35;-4.30;99.00
1700;DHT22;847;48.058;7.810;2022-12-18T12:03:18;-4.20;99.00
1700;DHT22;847;48.058;7.810;2022-12-18T12:06:00;-4.20;99.00
1700;DHT22;847;48.058;7.810;2022-12-18T12:08:38;-4.20;99.00
1700;DHT22;847;48.058;7.810;2022-12-18T12:11:17;-4.10;99.00
1700;DHT22;847;48.058;7.810;2022-12-18T12:14:14;-4.10;99.00
1700;DHT22;847;48.058;7.810;2022-12-18T12:16:48;-4.00;99.00
1700;DHT22;847;48.058;7.810;2022-12-18T12:19:28;-4.00;99.00
1700;DHT22;847;48.058;7.810;2022-12-18T12:22:03;-3.90;99.00
1700;DHT22;847;48.058;7.810;2022-12-18T12:24:39;-3.90;99.00
1700;DHT22;847;48.058;7.810;2022-12-18T12:27:18;-3.90;99.00
1700;DHT22;847;48.058;7.810;2022-12-18T12:29:55;-3.90;99.00
1700;DHT22;847;48.058;7.810;2022-12-18T12:32:34;-3.80;99.00
1700;DHT22;847;48.058;7.810;2022-12-18T12:35:15;-3.80;99.00
1700;DHT22;847;48.058;7.810;2022-12-18T12:38:00;-3.70;99.00
1700;DHT22;847;48.058;7.810;2022-12-18T12:40:29;-3.70;99.00
1700;DHT22;847;48.058;7.810;2022-12-18T12:43:01;-3.80;99.00
1700;DHT22;847;48.058;7.810;2022-12-18T12:45:44;-3.70;99.00
1700;DHT22;847;48.058;7.810;2022-12-18T12:48:20;-3.70;99.00
1700;DHT22;847;48.058;7.810;2022-12-18T12:50:50;-3.60;99.00
1700;DHT22;847;48.058;7.810;2022-12-18T12:53:23;-3.60;99.00
1700;DHT22;847;48.058;7.810;2022-12-18T12:55:52;-3.50;99.00
1700;DHT22;847;48.058;7.810;2022-12-18T12:58:28;-3.50;99.00
1700;DHT22;847;48.058;7.810;2022-12-18T13:01:02;-3.40;99.00
1700;DHT22;847;48.058;7.810;2022-12-18T13:03:41;-3.40;99.00
1700;DHT22;847;48.058;7.810;2022-12-18T13:06:14;-3.30;99.00
1700;DHT22;847;48.058;7.810;2022-12-18T13:08:55;-3.30;99.00
1700;DHT22;847;48.058;7.810;2022-12-18T13:11:35;-3.30;99.00
1700;DHT22;847;48.058;7.810;2022-12-18T13:14:24;-3.20;99.00
1700;DHT22;847;48.058;7.810;2022-12-18T13:16:51;-3.20;99.00
1700;DHT22;847;48.058;7.810;2022-12-18T13:19:26;-3.10;99.00
1700;DHT22;847;48.058;7.810;2022-12-18T13:21:54;-3.10;99.00
1700;DHT22;847;48.058;7.810;2022-12-18T13:24:25;-3.10;99.00
1700;DHT22;847;48.058;7.810;2022-12-18T13:26:52;-3.10;99.00
1700;DHT22;847;48.058;7.810;2022-12-18T13:29:42;-3.10;99.00
1700;DHT22;847;48.058;7.810;2022-12-18T13:32:20;-3.00;99.00
1700;DHT22;847;48.058;7.810;2022-12-18T13:34:47;-3.00;99.00
1700;DHT22;847;48.058;7.810;2022-12-18T13:37:41;-3.00;99.00
1700;DHT22;847;48.058;7.810;2022-12-18T13:43:33;-3.00;99.00
1700;DHT22;847;48.058;7.810;2022-12-18T13:46:17;-2.90;99.00
1700;DHT22;847;48.058;7.810;2022-12-18T13:48:57;-2.90;99.00
1700;DHT22;847;48.058;7.810;2022-12-18T13:51:25;-2.90;99.00
1700;DHT22;847;48.058;7.810;2022-12-18T13:53:56;-2.90;99.00
1700;DHT22;847;48.058;7.810;2022-12-18T13:56:25;-2.90;99.00
1700;DHT22;847;48.058;7.810;2022-12-18T13:59:14;-3.00;99.00
1700;DHT22;847;48.058;7.810;2022-12-18T14:01:44;-3.00;99.00
1700;DHT22;847;48.058;7.810;2022-12-18T14:04:12;-2.90;99.00
1700;DHT22;847;48.058;7.810;2022-12-18T14:06:44;-3.00;99.00
1700;DHT22;847;48.058;7.810;2022-12-18T14:09:14;-3.00;99.00
1700;DHT22;847;48.058;7.810;2022-12-18T14:11:46;-2.90;99.00
1700;DHT22;847;48.058;7.810;2022-12-18T14:14:14;-2.90;99.00
1700;DHT22;847;48.058;7.810;2022-12-18T14:16:43;-2.90;99.00
1700;DHT22;847;48.058;7.810;2022-12-18T14:19:13;-2.80;99.00
1700;DHT22;847;48.058;7.810;2022-12-18T14:21:40;-2.80;99.00
1700;DHT22;847;48.058;7.810;2022-12-18T14:24:14;-2.80;99.00
1700;DHT22;847;48.058;7.810;2022-12-18T14:26:41;-2.70;99.00
1700;DHT22;847;48.058;7.810;2022-12-18T14:29:23;-2.80;99.00
1700;DHT22;847;48.058;7.810;2022-12-18T14:32:10;-2.70;99.00
1700;DHT22;847;48.058;7.810;2022-12-18T14:34:37;-2.60;99.00
1700;DHT22;847;48.058;7.810;2022-12-18T14:37:04;-2.70;99.00
1700;DHT22;847;48.058;7.810;2022-12-18T14:39:32;-2.70;99.00
1700;DHT22;847;48.058;7.810;2022-12-18T14:41:59;-2.70;99.00
1700;DHT22;847;48.058;7.810;2022-12-18T14:44:26;-2.70;99.00
1700;DHT22;847;48.058;7.810;2022-12-18T14:46:52;-2.70;99.00
1700;DHT22;847;48.058;7.810;2022-12-18T14:49:24;-2.80;99.00
1700;DHT22;847;48.058;7.810;2022-12-18T14:51:53;-2.80;99.00
1700;DHT22;847;48.058;7.810;2022-12-18T14:54:21;-2.80;99.00
1700;DHT22;847;48.058;7.810;2022-12-18T14:56:50;-2.90;99.00
1700;DHT22;847;48.058;7.810;2022-12-18T14:59:20;-2.80;99.00
1700;DHT22;847;48.058;7.810;2022-12-18T15:01:53;-2.80;99.00
1700;DHT22;847;48.058;7.810;2022-12-18T15:04:27;-2.70;99.00
1700;DHT22;847;48.058;7.810;2022-12-18T15:07:12;-2.70;99.00
1700;DHT22;847;48.058;7.810;2022-12-18T15:09:41;-2.70;99.00
1700;DHT22;847;48.058;7.810;2022-12-18T15:12:24;-2.70;99.00
1700;DHT22;847;48.058;7.810;2022-12-18T15:14:52;-2.70;99.00
1700;DHT22;847;48.058;7.810;2022-12-18T15:17:21;-2.70;99.00
1700;DHT22;847;48.058;7.810;2022-12-18T15:19:51;-2.60;99.00
1700;DHT22;847;48.058;7.810;2022-12-18T15:22:21;-2.60;99.00
1700;DHT22;847;48.058;7.810;2022-12-18T15:24:49;-2.60;99.00
1700;DHT22;847;48.058;7.810;2022-12-18T15:27:31;-2.60;99.00
1700;DHT22;847;48.058;7.810;2022-12-18T15:30:19;-2.60;99.00
1700;DHT22;847;48.058;7.810;2022-12-18T15:32:47;-2.60;99.00
1700;DHT22;847;48.058;7.810;2022-12-18T15:35:18;-2.70;99.00
1700;DHT22;847;48.058;7.810;2022-12-18T15:37:46;-2.70;99.00
1700;DHT22;847;48.058;7.810;2022-12-18T15:40:14;-2.70;99.00
1700;DHT22;847;48.058;7.810;2022-12-18T15:42:41;-2.60;99.00
1700;DHT22;847;48.058;7.810;2022-12-18T15:45:26;-2.70;99.00
1700;DHT22;847;48.058;7.810;2022-12-18T15:47:53;-2.60;99.00
1700;DHT22;847;48.058;7.810;2022-12-18T15:50:21;-2.60;99.00
1700;DHT22;847;48.058;7.810;2022-12-18T15:52:50;-2.70;99.00
1700;DHT22;847;48.058;7.810;2022-12-18T15:55:19;-2.70;99.00
1700;DHT22;847;48.058;7.810;2022-12-18T15:58:04;-2.70;99.00
1700;DHT22;847;48.058;7.810;2022-12-18T16:00:31;-2.80;99.00
1700;DHT22;847;48.058;7.810;2022-12-18T16:02:59;-2.80;99.00
1700;DHT22;847;48.058;7.810;2022-12-18T16:05:27;-2.80;99.00
1700;DHT22;847;48.058;7.810;2022-12-18T16:07:54;-2.80;99.00
1700;DHT22;847;48.058;7.810;2022-12-18T16:10:21;-2.90;99.00
1700;DHT22;847;48.058;7.810;2022-12-18T16:12:49;-2.90;99.00
1700;DHT22;847;48.058;7.810;2022-12-18T16:15:16;-2.90;99.00
1700;DHT22;847;48.058;7.810;2022-12-18T16:17:43;-2.90;99.00
1700;DHT22;847;48.058;7.810;2022-12-18T16:20:13;-2.90;99.00
1700;DHT22;847;48.058;7.810;2022-12-18T16:22:42;-2.90;99.00
1700;DHT22;847;48.058;7.810;2022-12-18T16:25:17;-2.90;99.00
1700;DHT22;847;48.058;7.810;2022-12-18T16:27:44;-2.90;99.00
1700;DHT22;847;48.058;7.810;2022-12-18T16:30:13;-2.80;99.00
1700;DHT22;847;48.058;7.810;2022-12-18T16:32:40;-2.90;99.00
1700;DHT22;847;48.058;7.810;2022-12-18T16:35:09;-3.00;99.00
1700;DHT22;847;48.058;7.810;2022-12-18T16:37:36;-2.90;99.00
1700;DHT22;847;48.058;7.810;2022-12-18T16:40:06;-3.00;99.00
1700;DHT22;847;48.058;7.810;2022-12-18T16:42:34;-2.50;99.00